Time;durP1;ratioP1;P1;durP2;ratioP2;P2;SDS_P1;SDS_P2;PMS_P1;PMS_P2;Temp;Humidity;BMP_temperature;BMP_pressure;BME280_temperature;BME280_humidity;BME280_pressure;Samples;Min_cycle;Max_cycle;Signal;HPM_P1;HPM_P2
2024/02/11 00:01:12;;;;;;;4.47;3.03;;;16.60;99.90;;;;;;5051435;28;20036;-79
2024/02/11 00:03:38;;;;;;;5.25;3.13;;;16.60;99.90;;;;;;5043922;28;20065;-79
2024/02/11 00:06:10;;;;;;;6.28;3.45;;;16.60;99.90;;;;;;5039240;28;20474;-77
2024/02/11 00:08:40;;;;;;;5.38;3.63;;;16.60;99.90;;;;;;5041961;28;20029;-78
2024/02/11 00:11:07;;;;;;;5.75;3.13;;;16.60;99.90;;;;;;5050213;28;20029;-77
2024/02/11 00:13:32;;;;;;;;;;;16.60;99.90;;;;;;5050816;28;20486;-77
2024/02/11 00:16:00;;;;;;;3.15;2.60;;;16.60;99.90;;;;;;5050516;28;19919;-77
2024/02/11 00:18:28;;;;;;;4.57;3.30;;;16.60;99.90;;;;;;5052140;28;20024;-80
2024/02/11 00:20:54;;;;;;;4.05;3.17;;;16.50;99.90;;;;;;5042091;28;20033;-79
2024/02/11 00:23:22;;;;;;;4.13;2.65;;;16.60;99.90;;;;;;5044814;28;20398;-78
2024/02/11 00:25:54;;;;;;;5.22;2.90;;;16.60;99.90;;;;;;5049377;28;20116;-76
2024/02/11 00:28:25;;;;;;;3.88;2.85;;;16.60;99.90;;;;;;5049469;28;20474;-76
2024/02/11 00:30:53;;;;;;;4.30;3.10;;;16.50;99.90;;;;;;5047826;28;20025;-77
2024/02/11 00:33:24;;;;;;;3.50;2.90;;;16.50;99.90;;;;;;5034627;28;20033;-79
2024/02/11 00:35:50;;;;;;;3.45;2.72;;;16.50;99.90;;;;;;5041168;28;20160;-76
2024/02/11 00:38:17;;;;;;;4.22;3.00;;;16.50;99.90;;;;;;5048065;28;20064;-78
2024/02/11 00:40:43;;;;;;;4.80;2.80;;;16.50;99.90;;;;;;5047586;28;20057;-78
2024/02/11 00:43:09;;;;;;;4.13;3.33;;;16.50;99.90;;;;;;5052130;28;20110;-77
2024/02/11 00:45:38;;;;;;;4.73;2.93;;;16.50;99.90;;;;;;5042280;28;20063;-77
2024/02/11 00:48:05;;;;;;;6.85;3.80;;;16.50;99.90;;;;;;5041540;28;20493;-76
2024/02/11 00:50:32;;;;;;;3.83;3.00;;;16.50;99.90;;;;;;5049185;28;20021;-78
2024/02/11 00:53:02;;;;;;;3.75;3.00;;;16.50;99.90;;;;;;5049243;28;20040;-76
2024/02/11 00:55:28;;;;;;;4.28;2.80;;;16.50;99.90;;;;;;5041771;28;20040;-76
2024/02/11 00:57:54;;;;;;;5.30;3.85;;;16.50;99.90;;;;;;5041174;28;20029;-79
2024/02/11 01:00:20;;;;;;;4.47;3.10;;;16.50;99.90;;;;;;5048996;28;20106;-77
2024/02/11 01:02:46;;;;;;;4.70;2.88;;;16.50;99.90;;;;;;5049428;28;20628;-80
2024/02/11 01:05:15;;;;;;;4.23;3.17;;;16.50;99.90;;;;;;5049538;28;20071;-78
2024/02/11 01:07:41;;;;;;;4.65;3.35;;;16.50;99.90;;;;;;5049369;28;20064;-76
2024/02/11 01:10:11;;;;;;;5.93;3.23;;;16.50;99.90;;;;;;5047383;28;20068;-79
2024/02/11 01:12:40;;;;;;;4.65;3.10;;;16.50;99.90;;;;;;5046571;28;20833;-77
2024/02/11 01:15:07;;;;;;;3.53;2.72;;;16.50;99.90;;;;;;5049740;28;20033;-76
2024/02/11 01:17:33;;;;;;;4.85;2.90;;;16.50;99.90;;;;;;5044937;28;20021;-77
2024/02/11 01:19:59;;;;;;;3.70;2.90;;;16.40;99.90;;;;;;5047026;28;20390;-77
2024/02/11 01:22:24;;;;;;;4.33;3.23;;;16.40;99.90;;;;;;5048642;28;20130;-78
2024/02/11 01:24:50;;;;;;;4.50;3.00;;;16.50;99.90;;;;;;5048632;28;20052;-76
2024/02/11 01:27:16;;;;;;;4.60;2.80;;;16.40;99.90;;;;;;5043901;28;20032;-78
2024/02/11 01:29:41;;;;;;;5.13;3.10;;;16.40;99.90;;;;;;5041833;28;20059;-77
2024/02/11 01:32:09;;;;;;;3.83;2.93;;;16.40;99.90;;;;;;5050143;28;20040;-79
2024/02/11 01:34:34;;;;;;;4.05;2.70;;;16.40;99.90;;;;;;5045062;28;20447;-77
2024/02/11 01:37:00;;;;;;;4.00;2.40;;;16.40;99.90;;;;;;5047860;28;20119;-77
2024/02/11 01:39:26;;;;;;;4.65;2.80;;;16.40;99.90;;;;;;5050767;28;20032;-76
2024/02/11 01:41:52;;;;;;;5.50;2.97;;;16.40;99.90;;;;;;5037162;28;20064;-76
2024/02/11 01:44:18;;;;;;;3.20;2.63;;;16.40;99.90;;;;;;5043885;28;20374;-77
2024/02/11 01:46:45;;;;;;;3.90;3.07;;;16.40;99.90;;;;;;5044727;28;20168;-76
2024/02/11 01:49:11;;;;;;;5.78;2.85;;;16.40;99.90;;;;;;5041636;28;20254;-78
2024/02/11 01:51:44;;;;;;;3.30;2.63;;;16.40;99.90;;;;;;5043100;28;20508;-77
2024/02/11 01:54:16;;;;;;;4.60;3.08;;;16.40;99.90;;;;;;5048075;28;20040;-77
2024/02/11 01:56:42;;;;;;;4.13;3.20;;;16.40;99.90;;;;;;5050826;28;20029;-77
2024/02/11 01:59:09;;;;;;;4.22;2.83;;;16.40;99.90;;;;;;5038936;28;20116;-77
2024/02/11 02:01:35;;;;;;;;;;;16.40;99.90;;;;;;5049801;28;20119;-78
2024/02/11 02:04:01;;;;;;;3.97;3.00;;;16.30;99.90;;;;;;5045696;28;19921;-77
2024/02/11 02:06:27;;;;;;;4.17;2.97;;;16.30;99.90;;;;;;5051044;28;20253;-78
2024/02/11 02:08:53;;;;;;;4.28;2.85;;;16.40;99.90;;;;;;5050358;28;20037;-78
2024/02/11 02:11:20;;;;;;;5.30;2.43;;;16.30;99.90;;;;;;5039682;28;20056;-77
2024/02/11 02:13:46;;;;;;;3.90;2.92;;;16.30;99.90;;;;;;5048575;28;20033;-77
2024/02/11 02:16:12;;;;;;;3.80;2.60;;;16.30;99.90;;;;;;5049341;28;20025;-76
2024/02/11 02:18:37;;;;;;;3.73;2.70;;;16.30;99.90;;;;;;5051039;28;20100;-77
2024/02/11 02:21:04;;;;;;;3.90;2.80;;;16.30;99.90;;;;;;5039923;28;20494;-76
2024/02/11 02:23:30;;;;;;;4.07;3.10;;;16.30;99.90;;;;;;5047820;28;20122;-79
2024/02/11 02:25:57;;;;;;;3.17;2.63;;;16.30;99.90;;;;;;5050137;28;20064;-80
2024/02/11 02:28:23;;;;;;;4.20;3.08;;;16.30;99.90;;;;;;5048494;28;20290;-76
2024/02/11 02:30:49;;;;;;;3.70;2.75;;;16.30;99.90;;;;;;5039760;28;20108;-75
2024/02/11 02:33:17;;;;;;;3.83;2.93;;;16.30;99.90;;;;;;5052387;28;20801;-77
2024/02/11 02:35:43;;;;;;;5.75;3.33;;;16.30;99.90;;;;;;5053309;28;20087;-76
2024/02/11 02:38:09;;;;;;;3.27;2.60;;;16.30;99.90;;;;;;5054485;28;20025;-78
2024/02/11 02:40:34;;;;;;;3.70;2.67;;;16.30;99.90;;;;;;5051622;28;20071;-77
2024/02/11 02:43:07;;;;;;;4.17;2.73;;;16.30;99.90;;;;;;5052408;28;20047;-78
2024/02/11 02:45:32;;;;;;;4.07;2.85;;;16.30;99.90;;;;;;5052806;28;20037;-76
2024/02/11 02:47:58;;;;;;;4.90;2.80;;;16.30;99.90;;;;;;5053145;28;20040;-79
2024/02/11 02:50:24;;;;;;;5.03;2.87;;;16.20;99.90;;;;;;5050085;28;20087;-77
2024/02/11 02:52:49;;;;;;;5.43;3.00;;;16.20;99.90;;;;;;5052386;28;20092;-77
2024/02/11 02:55:17;;;;;;;7.67;3.23;;;16.30;99.90;;;;;;5045361;28;20047;-77
2024/02/11 02:57:43;;;;;;;3.50;2.92;;;16.20;99.90;;;;;;5046518;28;20053;-77
2024/02/11 03:00:10;;;;;;;3.63;2.60;;;16.20;99.90;;;;;;5044953;28;20053;-76
2024/02/11 03:02:35;;;;;;;3.75;2.95;;;16.20;99.90;;;;;;5053391;28;20101;-77
2024/02/11 03:05:03;;;;;;;3.57;2.87;;;16.20;99.90;;;;;;5049916;28;20069;-76
2024/02/11 03:07:29;;;;;;;3.33;2.70;;;16.20;99.90;;;;;;5052562;28;20025;-77
2024/02/11 03:09:56;;;;;;;3.45;3.13;;;16.20;99.90;;;;;;5052769;28;20025;-77
2024/02/11 03:12:22;;;;;;;3.10;2.35;;;16.20;99.90;;;;;;5053768;28;20033;-77
2024/02/11 03:14:49;;;;;;;3.20;2.83;;;16.20;99.90;;;;;;5049601;28;20440;-76
2024/02/11 03:17:15;;;;;;;3.80;3.17;;;16.20;99.90;;;;;;5046352;28;20033;-78
2024/02/11 03:19:43;;;;;;;4.43;2.43;;;16.20;99.90;;;;;;5044514;28;20025;-77
2024/02/11 03:22:13;;;;;;;4.90;2.88;;;16.20;99.90;;;;;;5052117;28;20545;-77
2024/02/11 03:24:39;;;;;;;3.67;2.70;;;16.20;99.90;;;;;;5052133;28;20067;-77
2024/02/11 03:27:06;;;;;;;3.17;2.35;;;16.20;99.90;;;;;;5050332;28;20489;-78
2024/02/11 03:29:35;;;;;;;5.93;3.05;;;16.20;99.90;;;;;;5053176;28;20132;-76
2024/02/11 03:32:00;;;;;;;3.20;2.42;;;16.20;99.90;;;;;;5044855;28;20063;-78
2024/02/11 03:34:26;;;;;;;3.47;2.70;;;16.10;99.90;;;;;;5050607;28;20032;-77
2024/02/11 03:36:52;;;;;;;3.10;2.70;;;16.20;99.90;;;;;;5049021;28;20085;-76
2024/02/11 03:39:19;;;;;;;3.43;2.73;;;16.10;99.90;;;;;;5051676;28;20041;-76
2024/02/11 03:41:45;;;;;;;3.03;2.60;;;16.10;99.90;;;;;;5050013;28;20178;-79
2024/02/11 03:44:11;;;;;;;3.00;2.60;;;16.20;99.90;;;;;;5053292;28;20040;-76
2024/02/11 03:46:37;;;;;;;4.50;3.13;;;16.10;99.90;;;;;;5051831;28;20032;-78
2024/02/11 03:49:03;;;;;;;5.53;2.80;;;16.20;99.90;;;;;;5052159;28;20032;-79
2024/02/11 03:51:30;;;;;;;4.23;3.00;;;16.20;99.90;;;;;;5049479;28;20025;-79
2024/02/11 03:53:59;;;;;;;7.35;2.70;;;16.10;99.90;;;;;;5045719;28;20030;-77
2024/02/11 03:56:26;;;;;;;4.07;3.00;;;16.10;99.90;;;;;;5049681;28;20031;-79
2024/02/11 03:58:52;;;;;;;4.70;2.88;;;16.10;99.90;;;;;;5051958;28;20322;-78
2024/02/11 04:01:18;;;;;;;3.30;2.50;;;16.10;99.90;;;;;;5052268;28;20032;-78
2024/02/11 04:03:44;;;;;;;3.47;2.70;;;16.10;99.90;;;;;;5051272;28;20392;-77
2024/02/11 04:06:11;;;;;;;3.97;2.90;;;16.10;99.90;;;;;;5051634;28;20025;-77
2024/02/11 04:08:43;;;;;;;3.55;2.78;;;16.10;99.90;;;;;;5049839;28;20388;-77
2024/02/11 04:11:12;;;;;;;3.65;2.53;;;16.10;99.90;;;;;;5047620;28;20033;-76
2024/02/11 04:13:38;;;;;;;3.10;2.58;;;16.10;99.90;;;;;;5049894;28;20033;-77
2024/02/11 04:16:16;;;;;;;3.92;2.45;;;16.10;99.90;;;;;;5051160;28;20053;-77
2024/02/11 04:18:47;;;;;;;3.40;2.80;;;16.10;99.90;;;;;;5039989;28;20480;-77
2024/02/11 04:21:15;;;;;;;3.65;2.55;;;16.10;99.90;;;;;;5050890;28;20025;-78
2024/02/11 04:23:41;;;;;;;3.92;2.90;;;16.00;99.90;;;;;;5050431;28;20114;-77
2024/02/11 04:26:08;;;;;;;3.58;2.70;;;16.10;99.90;;;;;;5051204;28;20498;-76
2024/02/11 04:28:37;;;;;;;3.58;3.00;;;16.10;99.90;;;;;;5048914;28;20079;-75
2024/02/11 04:31:09;;;;;;;4.07;3.00;;;16.00;99.90;;;;;;5051046;28;20044;-76
2024/02/11 04:33:41;;;;;;;3.45;2.78;;;16.00;99.90;;;;;;5042032;28;20033;-77
2024/02/11 04:36:09;;;;;;;4.38;2.97;;;16.00;99.90;;;;;;5038833;28;20112;-76
2024/02/11 04:38:35;;;;;;;3.20;2.72;;;16.10;99.90;;;;;;5049303;28;20053;-78
2024/02/11 04:41:01;;;;;;;3.90;2.80;;;16.10;99.90;;;;;;5050507;28;20083;-75
2024/02/11 04:43:27;;;;;;;3.30;2.70;;;16.00;99.90;;;;;;5045913;28;20301;-76
2024/02/11 04:45:53;;;;;;;5.18;3.05;;;16.00;99.90;;;;;;5049430;28;21739;-77
2024/02/11 04:48:24;;;;;;;3.75;2.40;;;16.10;99.90;;;;;;5050196;28;20048;-79
2024/02/11 04:50:51;;;;;;;4.35;3.00;;;16.00;99.90;;;;;;5040486;28;20029;-76
2024/02/11 04:53:18;;;;;;;3.33;2.60;;;16.00;99.90;;;;;;5047485;28;20025;-76
2024/02/11 04:55:48;;;;;;;3.17;2.67;;;16.00;99.90;;;;;;5047410;28;20109;-78
2024/02/11 04:58:14;;;;;;;4.30;2.65;;;16.00;99.90;;;;;;5035982;28;20029;-77
2024/02/11 05:00:41;;;;;;;3.20;2.90;;;16.00;99.90;;;;;;5043396;28;20041;-76
2024/02/11 05:03:07;;;;;;;4.05;2.78;;;16.00;99.90;;;;;;5040237;28;20033;-76
2024/02/11 05:05:34;;;;;;;3.33;2.80;;;16.00;99.90;;;;;;5045537;28;20108;-77
2024/02/11 05:08:02;;;;;;;3.58;2.80;;;16.00;99.90;;;;;;5034642;28;20033;-78
2024/02/11 05:10:30;;;;;;;6.05;3.25;;;16.00;99.90;;;;;;5044579;28;20060;-76
2024/02/11 05:12:56;;;;;;;3.25;2.90;;;15.90;99.90;;;;;;5037678;28;20052;-77
2024/02/11 05:15:24;;;;;;;3.28;2.65;;;16.00;99.90;;;;;;5042540;28;20048;-76
2024/02/11 05:17:54;;;;;;;4.00;2.75;;;15.90;99.90;;;;;;5034286;28;20033;-79
2024/02/11 05:20:25;;;;;;;2.90;2.30;;;15.90;99.90;;;;;;5047261;28;20730;-76
2024/02/11 05:22:51;;;;;;;3.65;2.58;;;15.90;99.90;;;;;;5048287;28;20061;-78
2024/02/11 05:25:20;;;;;;;3.28;2.72;;;15.90;99.90;;;;;;5050453;28;20383;-77
2024/02/11 05:27:59;;;;;;;3.30;2.88;;;16.00;99.90;;;;;;5048720;28;20049;-78
2024/02/11 05:30:35;;;;;;;3.63;2.88;;;15.90;99.90;;;;;;5056919;28;20141;-76
2024/02/11 05:33:02;;;;;;;3.65;2.85;;;15.90;99.90;;;;;;5042314;28;20093;-76
2024/02/11 05:35:28;;;;;;;2.92;2.53;;;15.90;99.90;;;;;;5046406;28;20037;-76
2024/02/11 05:37:58;;;;;;;4.18;3.20;;;15.90;99.90;;;;;;5036435;28;20061;-79
2024/02/11 05:40:45;;;;;;;5.65;2.85;;;15.90;99.90;;;;;;5041160;28;20075;-79
2024/02/11 05:43:12;;;;;;;3.60;3.00;;;15.90;99.90;;;;;;5041430;28;20080;-77
2024/02/11 05:45:39;;;;;;;3.90;2.95;;;15.90;99.90;;;;;;5045201;28;20387;-77
2024/02/11 05:48:06;;;;;;;4.90;2.60;;;15.90;99.90;;;;;;5035703;28;20112;-77
2024/02/11 05:50:32;;;;;;;3.67;2.92;;;15.90;99.90;;;;;;5040505;28;20026;-76
2024/02/11 05:52:58;;;;;;;4.07;3.13;;;15.90;99.90;;;;;;5045042;28;20037;-77
2024/02/11 05:55:24;;;;;;;3.77;3.03;;;15.90;99.90;;;;;;5041164;28;20047;-76
2024/02/11 05:57:52;;;;;;;5.97;2.60;;;15.90;99.90;;;;;;5046704;28;20036;-75
2024/02/11 06:00:26;;;;;;;3.70;2.83;;;15.90;99.90;;;;;;5042424;28;20262;-76
2024/02/11 06:02:53;;;;;;;3.63;2.58;;;15.90;99.90;;;;;;5049307;28;20059;-76
2024/02/11 06:05:20;;;;;;;4.25;2.85;;;15.90;99.90;;;;;;5041180;28;20459;-77
2024/02/11 06:07:51;;;;;;;5.10;3.03;;;15.90;99.90;;;;;;5049261;28;20036;-76
2024/02/11 06:10:18;;;;;;;4.78;2.90;;;15.90;99.90;;;;;;5045865;28;20037;-76
2024/02/11 06:12:46;;;;;;;3.58;2.60;;;15.90;99.90;;;;;;5049322;28;20060;-76
2024/02/11 06:15:14;;;;;;;3.38;2.65;;;15.90;99.90;;;;;;5048862;28;20039;-79
2024/02/11 06:17:43;;;;;;;3.65;3.05;;;15.90;99.90;;;;;;5047778;28;20378;-77
2024/02/11 06:20:19;;;;;;;4.05;2.90;;;15.90;99.90;;;;;;5049201;28;20029;-78
2024/02/11 06:22:55;;;;;;;4.00;3.00;;;15.80;99.90;;;;;;5046406;28;20113;-75
2024/02/11 06:25:22;;;;;;;3.97;2.88;;;15.90;99.90;;;;;;5050161;28;20261;-78
2024/02/11 06:27:48;;;;;;;3.08;2.78;;;15.80;99.90;;;;;;5050235;28;20055;-76
2024/02/11 06:30:15;;;;;;;3.55;2.65;;;15.80;99.90;;;;;;5047556;28;20025;-79
2024/02/11 06:32:42;;;;;;;4.55;3.20;;;15.80;99.90;;;;;;5044759;28;20063;-78
2024/02/11 06:35:10;;;;;;;;;;;15.80;99.90;;;;;;5049360;28;20064;-78
2024/02/11 06:37:40;;;;;;;4.10;3.17;;;15.80;99.90;;;;;;5049135;28;19917;-79
2024/02/11 06:40:10;;;;;;;4.30;2.90;;;15.80;99.90;;;;;;5042732;28;20075;-78
2024/02/11 06:42:36;;;;;;;3.88;2.83;;;15.80;99.90;;;;;;5048563;28;20032;-77
2024/02/11 06:45:03;;;;;;;3.08;2.47;;;15.80;99.90;;;;;;5049034;28;20033;-79
2024/02/11 06:47:28;;;;;;;3.85;3.05;;;15.80;99.90;;;;;;5049007;28;20031;-77
2024/02/11 06:49:54;;;;;;;5.00;2.87;;;15.80;99.90;;;;;;5049118;28;20116;-77
2024/02/11 06:52:20;;;;;;;4.10;2.77;;;15.80;99.90;;;;;;5049823;28;20522;-76
2024/02/11 06:54:47;;;;;;;4.60;3.33;;;15.80;99.90;;;;;;5050184;28;20025;-79
2024/02/11 06:57:14;;;;;;;3.97;2.97;;;15.80;99.90;;;;;;5048426;28;20359;-75
2024/02/11 06:59:40;;;;;;;5.05;3.53;;;15.80;99.90;;;;;;5048800;28;20441;-76
2024/02/11 07:02:07;;;;;;;4.23;3.03;;;15.80;99.90;;;;;;5049010;28;20129;-77
2024/02/11 07:04:33;;;;;;;4.18;2.95;;;15.80;99.90;;;;;;5049814;28;20033;-75
2024/02/11 07:07:03;;;;;;;4.27;2.80;;;15.70;99.90;;;;;;5048839;28;20044;-78
2024/02/11 07:09:29;;;;;;;3.88;2.90;;;15.70;99.90;;;;;;5048167;28;20024;-77
2024/02/11 07:11:58;;;;;;;3.72;2.85;;;15.70;99.90;;;;;;5037270;28;20087;-76
2024/02/11 07:14:25;;;;;;;3.75;3.00;;;15.80;99.90;;;;;;5049049;28;20037;-77
2024/02/11 07:16:51;;;;;;;4.55;3.25;;;15.70;99.90;;;;;;5052085;28;20029;-77
2024/02/11 07:19:18;;;;;;;4.05;3.13;;;15.70;99.90;;;;;;5048332;28;20036;-76
2024/02/11 07:21:43;;;;;;;4.38;3.00;;;15.70;99.90;;;;;;5051523;28;20064;-78
2024/02/11 07:24:10;;;;;;;3.97;2.80;;;15.70;99.90;;;;;;5038346;28;20069;-78
2024/02/11 07:26:36;;;;;;;3.55;2.65;;;15.70;99.90;;;;;;5042288;28;20095;-80
2024/02/11 07:29:03;;;;;;;4.82;2.85;;;15.70;99.90;;;;;;5050267;28;20045;-77
2024/02/11 07:31:29;;;;;;;3.80;2.97;;;15.70;99.90;;;;;;5050758;28;20049;-75
2024/02/11 07:33:55;;;;;;;3.47;2.58;;;15.70;99.90;;;;;;5045049;28;20037;-79
2024/02/11 07:36:22;;;;;;;3.63;2.67;;;15.70;99.90;;;;;;5049531;28;20040;-77
2024/02/11 07:38:51;;;;;;;3.95;2.78;;;15.70;99.90;;;;;;5050041;28;20033;-78
2024/02/11 07:41:21;;;;;;;4.03;2.88;;;15.70;99.90;;;;;;5051027;28;20031;-76
2024/02/11 07:43:47;;;;;;;5.28;2.38;;;15.60;99.90;;;;;;5050655;28;20037;-76
2024/02/11 07:46:13;;;;;;;3.72;2.65;;;15.60;99.90;;;;;;5050710;28;20067;-76
2024/02/11 07:48:40;;;;;;;4.35;3.00;;;15.60;99.90;;;;;;5052246;28;20032;-79
2024/02/11 07:51:06;;;;;;;3.75;2.50;;;15.60;99.90;;;;;;5048626;28;20082;-76
2024/02/11 07:53:33;;;;;;;7.90;2.58;;;15.60;99.90;;;;;;5051967;28;20405;-78
2024/02/11 07:55:59;;;;;;;5.88;2.92;;;15.60;99.90;;;;;;5050669;28;20090;-76
2024/02/11 07:58:25;;;;;;;3.15;2.53;;;15.60;99.90;;;;;;5051029;28;20116;-76
2024/02/11 08:00:51;;;;;;;3.27;2.37;;;15.60;99.90;;;;;;5048794;28;20120;-78
2024/02/11 08:03:17;;;;;;;4.97;3.03;;;15.60;99.90;;;;;;5045532;28;20051;-77
2024/02/11 08:05:42;;;;;;;5.20;2.67;;;15.60;99.90;;;;;;5048435;28;20036;-77
2024/02/11 08:08:08;;;;;;;12.60;4.50;;;15.70;99.90;;;;;;5044573;28;20454;-79
2024/02/11 08:10:34;;;;;;;12.53;3.27;;;15.60;99.90;;;;;;5044675;28;20273;-77
2024/02/11 08:13:00;;;;;;;8.57;2.67;;;15.60;99.90;;;;;;5050508;28;20616;-77
2024/02/11 08:15:25;;;;;;;8.77;3.13;;;15.60;99.90;;;;;;5049265;28;20032;-77
2024/02/11 08:17:51;;;;;;;33.97;16.57;;;15.60;99.90;;;;;;5047682;28;20526;-77
2024/02/11 08:20:18;;;;;;;27.13;14.07;;;15.60;99.90;;;;;;5049668;28;20033;-77
2024/02/11 08:22:45;;;;;;;16.20;7.72;;;15.70;99.90;;;;;;5051505;28;20029;-80
2024/02/11 08:25:14;;;;;;;;;;;15.70;99.90;;;;;;5051700;28;20021;-77
2024/02/11 08:27:41;;;;;;;16.92;7.50;;;15.70;99.90;;;;;;5050892;28;20023;-76
2024/02/11 08:30:09;;;;;;;13.35;7.15;;;15.70;99.90;;;;;;5050782;28;20147;-78
2024/02/11 08:32:36;;;;;;;19.15;6.80;;;15.70;99.90;;;;;;5049176;28;20024;-77
2024/02/11 08:35:06;;;;;;;182.15;102.32;;;15.70;99.90;;;;;;5043022;28;20032;-77
2024/02/11 08:37:32;;;;;;;242.82;131.63;;;15.70;99.90;;;;;;5049996;28;20025;-79
2024/02/11 08:39:58;;;;;;;100.15;58.53;;;15.70;99.90;;;;;;5042826;28;20667;-77
2024/02/11 08:42:27;;;;;;;102.53;54.20;;;15.70;99.90;;;;;;5046519;28;20029;-78
2024/02/11 08:44:54;;;;;;;89.47;47.92;;;15.70;99.90;;;;;;5049440;28;20041;-78
2024/02/11 08:47:20;;;;;;;76.63;42.28;;;15.70;99.90;;;;;;5044322;28;20474;-78
2024/02/11 08:49:47;;;;;;;74.85;39.83;;;15.70;99.90;;;;;;5050155;28;20112;-78
2024/02/11 08:52:13;;;;;;;78.20;40.45;;;15.70;99.90;;;;;;5048092;28;20449;-78
2024/02/11 08:54:39;;;;;;;64.57;34.47;;;15.70;99.90;;;;;;5047250;28;20056;-79
2024/02/11 08:57:06;;;;;;;59.47;33.53;;;15.70;99.90;;;;;;5049826;28;20029;-80
2024/02/11 08:59:32;;;;;;;67.05;34.03;;;15.70;99.90;;;;;;5049117;28;20033;-76
2024/02/11 09:01:59;;;;;;;55.50;30.50;;;15.70;99.90;;;;;;5050507;28;20029;-78
2024/02/11 09:04:27;;;;;;;57.05;30.15;;;15.70;99.90;;;;;;5047070;28;20040;-77
2024/02/11 09:06:57;;;;;;;58.38;29.20;;;15.70;99.90;;;;;;5050488;28;20021;-78
2024/02/11 09:09:26;;;;;;;44.33;25.50;;;15.80;99.90;;;;;;5041533;28;20045;-79
2024/02/11 09:11:54;;;;;;;50.55;26.58;;;15.80;99.90;;;;;;5051672;28;20024;-78
2024/02/11 09:14:21;;;;;;;44.63;25.88;;;15.70;99.90;;;;;;5051763;28;20154;-79
2024/02/11 09:16:47;;;;;;;45.03;25.52;;;15.70;99.90;;;;;;5050058;28;20024;-81
2024/02/11 09:19:13;;;;;;;42.63;22.37;;;15.80;99.90;;;;;;5050050;28;20061;-79
2024/02/11 09:21:39;;;;;;;45.13;23.98;;;15.80;99.90;;;;;;5049090;28;20024;-79
2024/02/11 09:24:07;;;;;;;42.22;24.33;;;15.80;99.90;;;;;;5049801;28;20048;-77
2024/02/11 09:26:32;;;;;;;39.50;22.25;;;15.80;99.90;;;;;;5046353;28;20028;-79
2024/02/11 09:28:58;;;;;;;89.83;35.57;;;15.80;99.90;;;;;;5046586;28;20055;-77
2024/02/11 09:31:24;;;;;;;73.37;29.83;;;15.80;99.90;;;;;;5048954;28;20378;-78
2024/02/11 09:33:50;;;;;;;55.63;26.60;;;15.80;99.90;;;;;;5048688;28;20206;-77
2024/02/11 09:36:15;;;;;;;58.63;25.77;;;15.80;99.90;;;;;;5048671;28;20123;-76
2024/02/11 09:38:43;;;;;;;73.53;38.72;;;15.90;99.90;;;;;;5049036;28;20573;-78
2024/02/11 09:41:09;;;;;;;53.93;27.60;;;15.90;99.90;;;;;;5049195;28;20108;-76
2024/02/11 09:43:39;;;;;;;50.13;26.53;;;15.90;99.90;;;;;;5046965;28;20036;-78
2024/02/11 09:46:06;;;;;;;47.20;23.42;;;15.90;99.90;;;;;;5049239;28;20051;-76
2024/02/11 09:48:34;;;;;;;46.25;22.83;;;15.90;99.90;;;;;;5049317;28;20029;-77
2024/02/11 09:51:01;;;;;;;51.42;21.00;;;15.90;99.90;;;;;;5041640;28;20024;-79
2024/02/11 09:53:28;;;;;;;40.22;20.55;;;15.90;99.90;;;;;;5047774;28;20029;-77
2024/02/11 09:55:54;;;;;;;49.35;21.42;;;16.00;99.90;;;;;;5036499;28;20062;-78
2024/02/11 09:58:21;;;;;;;41.53;20.40;;;16.00;99.90;;;;;;5047814;28;20025;-79
2024/02/11 10:00:46;;;;;;;37.72;20.23;;;16.10;99.90;;;;;;5046067;28;20029;-78
2024/02/11 10:03:17;;;;;;;36.70;19.33;;;16.10;99.90;;;;;;5042906;28;20063;-77
2024/02/11 10:05:48;;;;;;;38.78;19.30;;;16.10;99.90;;;;;;5032994;28;20029;-78
2024/02/11 10:08:15;;;;;;;35.28;18.90;;;16.10;99.90;;;;;;5045648;28;20394;-76
2024/02/11 10:10:44;;;;;;;33.67;17.67;;;16.10;99.90;;;;;;5033618;28;20458;-79
2024/02/11 10:13:19;;;;;;;34.22;18.10;;;16.20;99.90;;;;;;5032515;28;20487;-78
2024/02/11 10:15:45;;;;;;;35.28;18.20;;;16.20;99.90;;;;;;5043261;28;20120;-77
2024/02/11 10:18:12;;;;;;;;;;;16.30;99.90;;;;;;5049217;28;20112;-77
2024/02/11 10:20:38;;;;;;;33.22;17.02;;;16.30;99.90;;;;;;5042702;28;20380;-77
2024/02/11 10:23:05;;;;;;;29.90;15.73;;;16.30;99.90;;;;;;5044533;28;20033;-77
2024/02/11 10:25:34;;;;;;;31.90;16.27;;;16.30;99.90;;;;;;5035731;28;20036;-76
2024/02/11 10:28:01;;;;;;;26.70;15.02;;;16.30;99.90;;;;;;5038818;28;20506;-77
2024/02/11 10:30:27;;;;;;;30.88;15.23;;;16.30;99.90;;;;;;5036068;28;20052;-78
2024/02/11 10:32:59;;;;;;;32.58;15.38;;;16.30;99.90;;;;;;5050915;28;20021;-78
2024/02/11 10:35:29;;;;;;;26.15;13.63;;;16.40;99.90;;;;;;5048144;28;20028;-76
2024/02/11 10:37:55;;;;;;;26.58;14.13;;;16.40;99.90;;;;;;5030886;28;20056;-78
2024/02/11 10:40:24;;;;;;;61.08;30.73;;;16.40;99.90;;;;;;5045427;28;20086;-76
2024/02/11 10:42:50;;;;;;;299.33;129.35;;;16.40;99.90;;;;;;5047876;28;20116;-78
2024/02/11 10:45:16;;;;;;;198.68;84.28;;;16.50;99.90;;;;;;5048051;28;20103;-78
2024/02/11 10:47:42;;;;;;;124.97;55.40;;;16.50;99.90;;;;;;5047564;28;20534;-77
2024/02/11 10:50:12;;;;;;;185.37;83.40;;;16.50;99.90;;;;;;5049598;28;20033;-77
2024/02/11 10:52:49;;;;;;;193.43;85.07;;;16.50;99.90;;;;;;5047755;28;20489;-78
2024/02/11 10:55:19;;;;;;;161.27;71.70;;;16.50;99.90;;;;;;5043451;28;20025;-79
2024/02/11 10:57:54;;;;;;;149.95;65.13;;;16.50;99.90;;;;;;5048079;28;20029;-78
2024/02/11 11:00:21;;;;;;;139.68;62.30;;;16.60;99.90;;;;;;5050957;28;20024;-78
2024/02/11 11:02:51;;;;;;;138.75;61.53;;;16.60;99.90;;;;;;5051413;28;20496;-79
2024/02/11 11:05:20;;;;;;;174.52;83.95;;;16.60;99.90;;;;;;5045758;28;20039;-78
2024/02/11 11:07:51;;;;;;;141.05;65.45;;;16.60;99.90;;;;;;5054611;28;20115;-78
2024/02/11 11:10:18;;;;;;;129.63;55.60;;;16.60;99.90;;;;;;5054094;28;20112;-79
2024/02/11 11:12:57;;;;;;;125.82;56.13;;;16.60;99.90;;;;;;5060026;28;20119;-77
2024/02/11 11:15:24;;;;;;;119.55;54.78;;;16.60;99.90;;;;;;5047437;28;20089;-77
2024/02/11 11:17:53;;;;;;;113.22;52.13;;;16.60;99.90;;;;;;5053316;28;20111;-77
2024/02/11 11:20:19;;;;;;;104.75;50.65;;;16.60;99.90;;;;;;5049976;28;20409;-79
2024/02/11 11:22:53;;;;;;;110.83;48.93;;;16.60;99.90;;;;;;5048617;28;20028;-77
2024/02/11 11:25:32;;;;;;;104.18;46.08;;;16.60;99.90;;;;;;5052347;28;20759;-78
2024/02/11 11:28:09;;;;;;;101.88;46.67;;;16.60;99.90;;;;;;5047569;28;20084;-77
2024/02/11 11:30:35;;;;;;;97.25;45.00;;;16.60;99.90;;;;;;5044790;28;20036;-78
2024/02/11 11:33:04;;;;;;;89.60;42.80;;;16.60;99.90;;;;;;5051295;28;20371;-80
2024/02/11 11:35:30;;;;;;;87.65;38.60;;;16.70;99.90;;;;;;5049227;28;20540;-78
2024/02/11 11:38:00;;;;;;;131.25;66.45;;;16.70;99.90;;;;;;5041594;28;20071;-78
2024/02/11 11:40:30;;;;;;;96.25;46.65;;;16.70;99.90;;;;;;5049761;28;20578;-77
2024/02/11 11:42:56;;;;;;;89.50;40.75;;;16.70;99.90;;;;;;5040563;28;20033;-75
2024/02/11 11:45:22;;;;;;;83.97;39.50;;;16.80;99.90;;;;;;5045409;28;20033;-77
2024/02/11 11:47:51;;;;;;;77.43;38.95;;;16.90;99.90;;;;;;5051971;28;20029;-76
2024/02/11 11:50:20;;;;;;;78.53;36.85;;;16.90;99.90;;;;;;5051072;28;20371;-76
2024/02/11 11:52:57;;;;;;;82.25;37.38;;;17.00;99.90;;;;;;5052340;28;20021;-76
2024/02/11 11:55:24;;;;;;;76.25;36.22;;;17.00;99.90;;;;;;5052575;28;20498;-75
2024/02/11 11:57:56;;;;;;;73.57;34.78;;;17.10;99.90;;;;;;5052479;28;20022;-74
2024/02/11 12:00:22;;;;;;;70.43;33.53;;;17.10;99.90;;;;;;5050491;28;20382;-74
2024/02/11 12:02:47;;;;;;;73.33;33.80;;;17.00;99.90;;;;;;5042333;28;20033;-76
2024/02/11 12:05:13;;;;;;;78.00;33.67;;;17.10;99.90;;;;;;5041933;28;20044;-75
2024/02/11 12:07:39;;;;;;;68.07;32.40;;;17.10;99.90;;;;;;5051899;28;20028;-76
2024/02/11 12:10:06;;;;;;;60.50;30.42;;;17.20;99.90;;;;;;5050151;28;20033;-76
2024/02/11 12:12:32;;;;;;;66.50;31.20;;;17.20;99.90;;;;;;5049883;28;20427;-74
2024/02/11 12:14:58;;;;;;;65.13;31.40;;;17.10;99.90;;;;;;5051507;28;20033;-75
2024/02/11 12:17:24;;;;;;;71.15;31.45;;;17.10;99.90;;;;;;5051868;28;20033;-76
2024/02/11 12:19:49;;;;;;;72.40;31.90;;;17.10;99.90;;;;;;5048930;28;20764;-74
2024/02/11 12:22:15;;;;;;;64.23;29.27;;;17.10;99.90;;;;;;5048676;28;20033;-77
2024/02/11 12:24:44;;;;;;;59.57;29.87;;;17.00;99.90;;;;;;5049303;28;20496;-76
2024/02/11 12:27:17;;;;;;;58.80;27.02;;;17.10;99.90;;;;;;5048774;28;20039;-75
2024/02/11 12:29:54;;;;;;;51.88;24.95;;;17.10;99.90;;;;;;5052066;28;20040;-76
2024/02/11 12:32:21;;;;;;;51.40;26.90;;;17.10;99.90;;;;;;5048798;28;20501;-75
2024/02/11 12:34:47;;;;;;;52.10;25.73;;;17.10;99.90;;;;;;5045468;28;20040;-76
2024/02/11 12:37:14;;;;;;;58.53;25.60;;;17.10;99.90;;;;;;5049948;28;20232;-77
2024/02/11 12:39:41;;;;;;;51.97;24.17;;;17.20;99.90;;;;;;5050918;28;20033;-75
2024/02/11 12:42:07;;;;;;;52.72;24.23;;;17.20;99.90;;;;;;5044811;28;20029;-77